Time;durP1;ratioP1;P1;durP2;ratioP2;P2;SDS_P1;SDS_P2;PMS_P1;PMS_P2;Temp;Humidity;BMP_temperature;BMP_pressure;BME280_temperature;BME280_humidity;BME280_pressure;Samples;Min_cycle;Max_cycle;Signal;HPM_P1;HPM_P2
2022/01/30 00:00:48;;;;;;;;;;;;;;;19.52;42.80;101518.66;2064987;28;19972;-63
2022/01/30 00:01:48;;;;;;;;;;;;;;;19.44;42.97;101517.38;2065988;28;20606;-63
2022/01/30 00:02:48;;;;;;;;;;;;;;;19.40;43.05;101509.53;2061465;28;19931;-63
2022/01/30 00:03:49;;;;;;;;;;;;;;;19.37;43.11;101515.22;2065538;28;19920;-63
2022/01/30 00:04:49;;;;;;;;;;;;;;;19.33;43.28;101513.72;2062388;28;20410;-65
2022/01/30 00:05:52;;;;;;;;;;;;;;;19.30;43.23;101508.50;2065099;28;19921;-63
2022/01/30 00:06:53;;;;;;;;;;;;;;;19.27;43.18;101515.94;2063166;28;19959;-63
2022/01/30 00:07:53;;;;;;;;;;;;;;;19.25;43.24;101508.84;2063631;28;20367;-63
2022/01/30 00:08:54;;;;;;;;;;;;;;;19.25;43.20;101497.91;2064845;28;19921;-63
2022/01/30 00:09:54;;;;;;;;;;;;;;;19.25;43.28;101506.09;2061114;28;19945;-63
2022/01/30 00:11:01;;;;;;;;;;;;;;;19.25;43.31;101508.84;2059347;28;19921;-62
2022/01/30 00:12:04;;;;;;;;;;;;;;;19.22;43.33;101501.75;2061678;28;20303;-64
2022/01/30 00:13:07;;;;;;;;;;;;;;;19.24;43.26;101504.38;2064730;28;20062;-63
2022/01/30 00:14:12;;;;;;;;;;;;;;;19.25;43.28;101501.50;2072130;28;19925;-63
2022/01/30 00:15:13;;;;;;;;;;;;;;;19.27;43.20;101505.00;2066221;28;21076;-63
2022/01/30 00:16:17;;;;;;;;;;;;;;;19.27;43.13;101494.06;2063891;28;19924;-61
2022/01/30 00:17:23;;;;;;;;;;;;;;;19.28;43.25;101500.44;2061289;28;19921;-63
2022/01/30 00:19:36;;;;;;;;;;;;;;;19.30;43.09;101494.81;2061772;28;19921;-63
2022/01/30 00:20:39;;;;;;;;;;;;;;;19.31;43.08;101496.59;2062895;28;19960;-63
2022/01/30 00:21:45;;;;;;;;;;;;;;;19.31;42.95;101493.84;2062451;28;20267;-63
2022/01/30 00:23:08;;;;;;;;;;;;;;;19.31;42.95;101485.66;2064562;28;19921;-63
2022/01/30 00:24:20;;;;;;;;;;;;;;;19.28;43.09;101490.34;2063868;28;20020;-63
2022/01/30 00:25:32;;;;;;;;;;;;;;;19.31;43.06;101491.13;2061570;28;19921;-63
2022/01/30 00:26:35;;;;;;;;;;;;;;;19.29;42.95;101491.22;2064324;28;19920;-63
2022/01/30 00:29:05;;;;;;;;;;;;;;;19.30;42.84;101483.88;2054745;28;20388;-63
2022/01/30 00:30:07;;;;;;;;;;;;;;;19.27;42.93;101477.66;2065417;28;20285;-63
2022/01/30 00:31:08;;;;;;;;;;;;;;;19.27;43.01;101482.25;2062752;28;20716;-63
2022/01/30 00:32:09;;;;;;;;;;;;;;;19.25;42.84;101474.16;2064968;28;19941;-63
2022/01/30 00:33:09;;;;;;;;;;;;;;;19.26;42.83;101470.47;2064525;28;19924;-63
2022/01/30 00:34:09;;;;;;;;;;;;;;;19.27;42.86;101472.19;2065637;28;20351;-63
2022/01/30 00:35:10;;;;;;;;;;;;;;;19.25;42.87;101463.22;2062018;28;20020;-63
2022/01/30 00:36:10;;;;;;;;;;;;;;;19.27;42.81;101472.19;2061487;28;19921;-63
2022/01/30 00:37:10;;;;;;;;;;;;;;;19.25;42.86;101468.69;2065221;28;19917;-63
2022/01/30 00:38:15;;;;;;;;;;;;;;;19.25;42.85;101474.16;2062387;28;19925;-63
2022/01/30 00:39:15;;;;;;;;;;;;;;;19.25;42.74;101468.69;2061324;28;19961;-62
2022/01/30 00:40:16;;;;;;;;;;;;;;;19.24;42.80;101464.22;2063555;28;19918;-63
2022/01/30 00:41:16;;;;;;;;;;;;;;;19.25;42.70;101473.28;2061583;28;20072;-63
2022/01/30 00:42:17;;;;;;;;;;;;;;;19.23;42.71;101470.69;2061709;28;19929;-63
2022/01/30 00:43:18;;;;;;;;;;;;;;;19.24;42.72;101461.50;2063155;28;19967;-63
2022/01/30 00:44:18;;;;;;;;;;;;;;;19.23;42.65;101459.78;2058879;28;20323;-63
2022/01/30 00:45:19;;;;;;;;;;;;;;;19.24;42.70;101466.97;2062576;28;20298;-63
2022/01/30 00:46:19;;;;;;;;;;;;;;;19.24;42.62;101466.09;2061922;28;19921;-62
2022/01/30 00:47:19;;;;;;;;;;;;;;;19.25;42.62;101462.34;2064553;28;20295;-63
2022/01/30 00:48:20;;;;;;;;;;;;;;;19.24;42.71;101456.03;2063551;28;19925;-62
2022/01/30 00:49:20;;;;;;;;;;;;;;;19.25;42.61;101455.03;2064122;28;19925;-63
2022/01/30 00:50:20;;;;;;;;;;;;;;;19.25;42.58;101449.56;2064520;28;21123;-63
2022/01/30 00:51:21;;;;;;;;;;;;;;;19.25;42.57;101448.69;2063638;28;20849;-64
2022/01/30 00:52:22;;;;;;;;;;;;;;;19.25;42.64;101449.56;2063741;28;19933;-63
2022/01/30 00:53:22;;;;;;;;;;;;;;;19.26;42.57;101448.59;2060819;28;20139;-63
2022/01/30 00:54:23;;;;;;;;;;;;;;;19.26;42.51;101448.59;2061105;28;19921;-64
2022/01/30 00:55:24;;;;;;;;;;;;;;;19.26;42.56;101448.59;2061244;28;19975;-64
2022/01/30 00:56:24;;;;;;;;;;;;;;;19.26;42.57;101448.59;2060246;28;19937;-63
2022/01/30 00:57:25;;;;;;;;;;;;;;;19.24;42.54;101439.63;2063070;28;19925;-63
2022/01/30 00:58:25;;;;;;;;;;;;;;;19.26;42.49;101445.00;2060809;28;20478;-63
2022/01/30 00:59:25;;;;;;;;;;;;;;;19.26;42.57;101443.13;2065168;28;19956;-64
2022/01/30 01:00:26;;;;;;;;;;;;;;;19.24;42.51;101428.69;2062437;28;19917;-63
2022/01/30 01:01:27;;;;;;;;;;;;;;;19.24;42.47;101427.81;2064270;28;19979;-63
2022/01/30 01:02:27;;;;;;;;;;;;;;;19.23;42.49;101420.59;2062751;28;19917;-64
2022/01/30 01:03:27;;;;;;;;;;;;;;;19.23;42.48;101423.34;2064115;28;20569;-61
2022/01/30 01:04:28;;;;;;;;;;;;;;;19.22;42.59;101427.94;2065002;28;20004;-61
2022/01/30 01:05:30;;;;;;;;;;;;;;;19.21;42.53;101420.72;2060647;28;19921;-62
2022/01/30 01:06:31;;;;;;;;;;;;;;;19.21;42.49;101428.06;2059795;28;20336;-62
2022/01/30 01:07:32;;;;;;;;;;;;;;;19.21;42.65;101422.59;2064329;28;20089;-61
2022/01/30 01:08:46;;;;;;;;;;;;;;;19.21;42.56;101425.34;2061614;28;19917;-61
2022/01/30 01:10:28;;;;;;;;;;;;;;;19.20;42.56;101427.16;2061933;28;20400;-62
2022/01/30 01:23:43;;;;;;;;;;;;;;;19.17;42.45;101443.81;2064453;28;19925;-61
2022/01/30 01:24:43;;;;;;;;;;;;;;;19.17;42.31;101432.88;2064179;28;19921;-61
2022/01/30 01:25:43;;;;;;;;;;;;;;;19.18;42.32;101445.59;2062710;28;19920;-61
2022/01/30 01:26:44;;;;;;;;;;;;;;;19.18;42.34;101442.84;2063239;28;19927;-61
2022/01/30 01:27:44;;;;;;;;;;;;;;;19.17;42.12;101438.34;2060876;28;20386;-61
2022/01/30 01:28:45;;;;;;;;;;;;;;;19.18;42.39;101445.59;2060910;28;20009;-61
2022/01/30 01:29:45;;;;;;;;;;;;;;;19.17;42.38;101443.81;2060956;28;19928;-61
2022/01/30 01:30:46;;;;;;;;;;;;;;;19.17;42.35;101443.81;2064356;28;20016;-62
2022/01/30 01:31:46;;;;;;;;;;;;;;;19.16;42.35;101442.09;2063942;28;19971;-61
2022/01/30 01:32:46;;;;;;;;;;;;;;;19.16;42.35;101444.81;2064377;28;19920;-62
2022/01/30 01:35:06;;;;;;;;;;;;;;;19.17;42.37;101432.03;2061075;28;20689;-61
2022/01/30 01:36:06;;;;;;;;;;;;;;;19.17;42.38;101432.88;2064032;28;19913;-61
2022/01/30 01:37:09;;;;;;;;;;;;;;;19.18;42.36;101431.91;2063606;28;20415;-61
2022/01/30 01:38:12;;;;;;;;;;;;;;;19.18;42.30;101439.22;2061502;28;20403;-61
2022/01/30 01:39:13;;;;;;;;;;;;;;;19.19;42.18;101440.97;2060258;28;19964;-61
2022/01/30 01:40:13;;;;;;;;;;;;;;;19.18;42.25;101436.47;2060378;28;19921;-62
2022/01/30 01:41:18;;;;;;;;;;;;;;;19.18;42.22;101437.38;2059340;28;19937;-61
2022/01/30 01:42:18;;;;;;;;;;;;;;;19.18;42.21;101429.19;2063464;28;20327;-61
2022/01/30 01:43:19;;;;;;;;;;;;;;;19.19;42.24;101432.78;2063714;28;19977;-61
2022/01/30 01:44:29;;;;;;;;;;;;;;;19.19;42.21;101430.03;2063424;28;19928;-61
2022/01/30 01:45:35;;;;;;;;;;;;;;;19.17;42.17;101432.88;2064022;28;20415;-62
2022/01/30 01:46:35;;;;;;;;;;;;;;;19.19;42.14;101436.38;2062216;28;19927;-61
2022/01/30 01:47:35;;;;;;;;;;;;;;;19.19;42.13;101433.66;2064818;28;19948;-61
2022/01/30 01:48:36;;;;;;;;;;;;;;;19.19;42.06;101444.59;2063640;28;20733;-62
2022/01/30 01:49:38;;;;;;;;;;;;;;;19.19;42.01;101440.97;2062414;28;20302;-61
2022/01/30 01:50:43;;;;;;;;;;;;;;;19.19;42.06;101435.50;2065791;28;19921;-62
2022/01/30 01:51:48;;;;;;;;;;;;;;;19.19;42.12;101439.13;2062012;28;19917;-61
2022/01/30 01:52:49;;;;;;;;;;;;;;;19.19;42.09;101430.91;2060307;28;20252;-61
2022/01/30 01:53:51;;;;;;;;;;;;;;;19.17;42.03;101427.41;2063459;28;19920;-61
2022/01/30 01:54:54;;;;;;;;;;;;;;;19.18;42.02;101423.72;2063175;28;19922;-61
2022/01/30 01:55:54;;;;;;;;;;;;;;;19.17;42.11;101421.94;2064546;28;19920;-61
2022/01/30 01:56:54;;;;;;;;;;;;;;;19.18;42.06;101423.72;2062186;28;19956;-61
2022/01/30 01:57:54;;;;;;;;;;;;;;;19.18;41.97;101425.56;2062777;28;19925;-61
2022/01/30 01:58:55;;;;;;;;;;;;;;;19.17;42.01;101421.09;2063791;28;20323;-61
2022/01/30 01:59:56;;;;;;;;;;;;;;;19.16;42.04;101425.69;2059686;28;19975;-61
2022/01/30 02:00:59;;;;;;;;;;;;;;;19.16;42.03;101425.69;2059846;28;19970;-61
2022/01/30 02:02:01;;;;;;;;;;;;;;;19.17;41.96;101426.56;2063671;28;19917;-61
2022/01/30 02:03:02;;;;;;;;;;;;;;;19.16;42.07;101431.16;2061048;28;19913;-61
2022/01/30 02:04:03;;;;;;;;;;;;;;;19.16;42.00;101427.56;2060667;28;19972;-61
2022/01/30 02:05:05;;;;;;;;;;;;;;;19.14;42.06;101422.19;2061232;28;19913;-61
2022/01/30 02:06:08;;;;;;;;;;;;;;;19.13;42.10;101425.91;2063269;28;19994;-62
2022/01/30 02:08:55;;;;;;;;;;;;;;;19.12;42.01;101429.63;2037695;28;20421;-61
2022/01/30 02:09:56;;;;;;;;;;;;;;;19.11;42.06;101433.38;2038346;28;19928;-61
2022/01/30 02:11:04;;;;;;;;;;;;;;;19.11;42.03;101427.91;2029584;28;19934;-61
2022/01/30 02:12:05;;;;;;;;;;;;;;;19.10;42.18;101428.88;2033185;28;19923;-61
2022/01/30 02:13:37;;;;;;;;;;;;;;;19.09;42.04;101424.41;2020571;29;19919;-62
2022/01/30 02:14:47;;;;;;;;;;;;;;;19.08;42.12;101417.19;2043004;28;19999;-61
2022/01/30 02:24:16;;;;;;;;;;;;;;;19.04;42.05;101393.84;2064959;28;19924;-62
2022/01/30 02:25:39;;;;;;;;;;;;;;;19.04;41.89;101394.69;2058041;28;20375;-61
2022/01/30 02:26:42;;;;;;;;;;;;;;;19.04;42.04;101382.91;2061346;28;20704;-62
2022/01/30 02:27:42;;;;;;;;;;;;;;;19.04;41.98;101380.19;2070394;28;19932;-61
2022/01/30 02:28:43;;;;;;;;;;;;;;;19.02;42.04;101385.75;2067545;28;20686;-62
2022/01/30 02:29:43;;;;;;;;;;;;;;;19.04;41.96;101385.63;2064972;28;20242;-62
2022/01/30 02:30:55;;;;;;;;;;;;;;;19.03;42.05;101383.88;2060936;28;20612;-62
2022/01/30 02:31:57;;;;;;;;;;;;;;;19.03;42.00;101383.88;2061939;28;19924;-61
2022/01/30 02:32:58;;;;;;;;;;;;;;;19.01;41.97;101377.66;2063092;28;19964;-61
2022/01/30 02:33:58;;;;;;;;;;;;;;;19.01;41.99;101372.19;2059306;28;20486;-61
2022/01/30 02:34:59;;;;;;;;;;;;;;;19.00;41.99;101373.19;2063762;28;20273;-61
2022/01/30 02:35:59;;;;;;;;;;;;;;;18.99;42.08;101371.47;2061127;28;19921;-62
2022/01/30 02:37:00;;;;;;;;;;;;;;;18.98;42.03;101366.97;2061489;28;19924;-61
2022/01/30 02:38:01;;;;;;;;;;;;;;;18.97;42.01;101373.44;2063647;28;19913;-62
2022/01/30 02:39:02;;;;;;;;;;;;;;;18.98;42.00;101372.44;2063175;28;19960;-61
2022/01/30 02:40:06;;;;;;;;;;;;;;;18.96;41.96;101368.94;2065503;28;19928;-61
2022/01/30 02:41:06;;;;;;;;;;;;;;;18.95;42.08;101359.00;2063182;28;19921;-61
2022/01/30 02:42:07;;;;;;;;;;;;;;;18.94;42.12;101365.50;2060544;28;19967;-61
2022/01/30 02:43:07;;;;;;;;;;;;;;;18.94;42.14;101349.09;2061571;28;19913;-62
2022/01/30 02:45:11;;;;;;;;;;;;;;;18.92;42.03;101356.53;2055103;28;19976;-62
2022/01/30 02:46:30;;;;;;;;;;;;;;;18.91;42.12;101347.44;2061245;28;19917;-61
2022/01/30 02:48:53;;;;;;;;;;;;;;;18.89;42.05;101351.28;2060529;28;19931;-61
2022/01/30 02:50:17;;;;;;;;;;;;;;;18.90;42.06;101350.31;2069704;28;19913;-62
2022/01/30 02:51:18;;;;;;;;;;;;;;;18.89;42.12;101354.91;2067056;28;20138;-61
2022/01/30 02:52:19;;;;;;;;;;;;;;;18.88;42.07;101350.41;2061536;28;19928;-62
2022/01/30 02:53:28;;;;;;;;;;;;;;;18.88;42.20;101349.56;2060513;28;19913;-61
2022/01/30 02:54:30;;;;;;;;;;;;;;;18.89;42.06;101356.75;2066227;28;20242;-61
2022/01/30 02:55:30;;;;;;;;;;;;;;;18.88;42.09;101355.00;2062943;28;19921;-62
2022/01/30 02:56:31;;;;;;;;;;;;;;;18.88;41.99;101355.88;2061665;28;19928;-61
2022/01/30 02:57:31;;;;;;;;;;;;;;;18.87;42.05;101348.69;2062858;28;20375;-62
2022/01/30 02:58:31;;;;;;;;;;;;;;;18.87;42.26;101348.69;2061434;28;20216;-61
2022/01/30 02:59:32;;;;;;;;;;;;;;;18.86;42.06;101352.38;2058998;28;19910;-62
2022/01/30 03:00:33;;;;;;;;;;;;;;;18.84;42.07;101349.78;2064891;28;20394;-61
2022/01/30 03:01:33;;;;;;;;;;;;;;;18.84;42.01;101355.25;2060011;28;19944;-61
2022/01/30 03:02:33;;;;;;;;;;;;;;;18.85;42.08;101340.59;2062485;28;20648;-61
2022/01/30 03:03:34;;;;;;;;;;;;;;;18.85;42.23;101351.53;2060272;28;19982;-61
2022/01/30 03:04:34;;;;;;;;;;;;;;;18.83;42.19;101345.31;2059632;28;20347;-62
2022/01/30 03:05:34;;;;;;;;;;;;;;;18.84;42.20;101346.19;2062391;28;20659;-62
2022/01/30 03:06:35;;;;;;;;;;;;;;;18.82;42.26;101339.97;2062264;28;19913;-62
2022/01/30 03:07:35;;;;;;;;;;;;;;;18.81;42.23;101336.38;2062474;28;20417;-62
2022/01/30 03:08:36;;;;;;;;;;;;;;;18.80;42.16;101337.34;2061286;28;19978;-60
2022/01/30 03:09:36;;;;;;;;;;;;;;;18.79;42.34;101343.81;2060856;28;19918;-61
2022/01/30 03:10:36;;;;;;;;;;;;;;;18.78;42.13;101338.47;2060062;28;20027;-62
2022/01/30 03:11:37;;;;;;;;;;;;;;;18.78;42.31;101333.00;2060714;28;20643;-61
2022/01/30 03:12:37;;;;;;;;;;;;;;;18.78;42.31;101338.47;2060619;28;21326;-61
2022/01/30 03:13:38;;;;;;;;;;;;;;;18.76;42.32;101330.38;2061017;28;19948;-61
2022/01/30 03:14:38;;;;;;;;;;;;;;;18.76;42.25;101337.69;2060610;28;20028;-61
2022/01/30 03:15:38;;;;;;;;;;;;;;;18.75;42.18;101334.06;2061707;28;19924;-61
2022/01/30 03:16:39;;;;;;;;;;;;;;;18.76;42.07;101340.44;2061299;28;20422;-62
2022/01/30 03:17:40;;;;;;;;;;;;;;;18.76;42.25;101344.03;2063331;28;20434;-62
2022/01/30 03:18:44;;;;;;;;;;;;;;;18.77;42.17;101336.72;2062627;28;19929;-62
2022/01/30 03:19:44;;;;;;;;;;;;;;;18.77;42.24;101337.59;2062250;28;20008;-62
2022/01/30 03:20:45;;;;;;;;;;;;;;;18.77;42.17;101337.59;2062784;28;19917;-62
2022/01/30 03:21:45;;;;;;;;;;;;;;;18.78;42.11;101339.31;2062322;28;20035;-62
2022/01/30 03:22:46;;;;;;;;;;;;;;;18.77;42.09;101334.88;2062808;28;19921;-62
2022/01/30 03:23:46;;;;;;;;;;;;;;;18.77;42.14;101340.31;2061038;28;19932;-61
2022/01/30 03:24:47;;;;;;;;;;;;;;;18.77;42.17;101343.06;2062018;28;20431;-62
2022/01/30 03:25:53;;;;;;;;;;;;;;;18.77;42.10;101337.59;2062713;28;20629;-61
2022/01/30 03:26:54;;;;;;;;;;;;;;;18.77;42.10;101340.31;2061572;28;19925;-61
2022/01/30 03:27:54;;;;;;;;;;;;;;;18.77;42.01;101337.59;2062670;28;19976;-62
2022/01/30 03:29:04;;;;;;;;;;;;;;;18.75;42.11;101334.06;2060600;28;20508;-61
2022/01/30 03:30:06;;;;;;;;;;;;;;;18.76;41.99;101327.63;2063708;28;20282;-62
2022/01/30 03:31:10;;;;;;;;;;;;;;;18.75;41.98;101331.34;2062468;28;19921;-62
2022/01/30 03:32:10;;;;;;;;;;;;;;;18.74;42.04;101321.41;2060464;28;19925;-61
2022/01/30 03:33:10;;;;;;;;;;;;;;;18.75;42.04;101334.06;2063905;28;19921;-61
2022/01/30 03:34:11;;;;;;;;;;;;;;;18.74;42.07;101325.97;2066683;28;20331;-61
2022/01/30 03:35:11;;;;;;;;;;;;;;;18.73;42.04;101322.38;2062367;28;20763;-62
2022/01/30 03:36:12;;;;;;;;;;;;;;;18.72;42.03;101331.59;2062314;28;19917;-61
2022/01/30 03:37:12;;;;;;;;;;;;;;;18.72;42.19;101334.31;2061144;28;20391;-61
2022/01/30 03:38:14;;;;;;;;;;;;;;;18.70;42.20;101330.81;2061611;28;19917;-62
2022/01/30 03:39:14;;;;;;;;;;;;;;;18.70;42.18;101333.56;2059059;28;20026;-61
2022/01/30 03:40:15;;;;;;;;;;;;;;;18.69;42.01;101340.03;2069354;28;19986;-61
2022/01/30 03:41:15;;;;;;;;;;;;;;;18.70;42.08;101335.41;2066653;28;19979;-62
2022/01/30 03:42:15;;;;;;;;;;;;;;;18.68;42.02;101338.25;2061825;28;19929;-61
2022/01/30 03:43:16;;;;;;;;;;;;;;;18.67;42.14;101328.34;2063032;28;20423;-61
2022/01/30 03:44:16;;;;;;;;;;;;;;;18.66;42.16;101323.84;2062257;28;19925;-61
2022/01/30 03:45:16;;;;;;;;;;;;;;;18.66;42.13;101322.97;2060103;28;20098;-62
2022/01/30 03:46:18;;;;;;;;;;;;;;;18.66;42.03;101323.84;2060237;28;20403;-62
2022/01/30 03:47:18;;;;;;;;;;;;;;;18.64;42.13;101325.81;2060606;28;19925;-61
2022/01/30 03:48:18;;;;;;;;;;;;;;;18.64;42.07;101323.09;2062379;28;19925;-62
2022/01/30 03:49:19;;;;;;;;;;;;;;;18.62;42.18;101328.69;2061479;28;20296;-61
2022/01/30 03:50:19;;;;;;;;;;;;;;;18.63;42.19;101335.00;2062553;28;19921;-62
2022/01/30 03:51:19;;;;;;;;;;;;;;;18.62;42.23;101330.56;2062387;28;19931;-61
2022/01/30 03:52:20;;;;;;;;;;;;;;;18.61;42.24;101334.25;2062515;28;20048;-61
2022/01/30 03:53:20;;;;;;;;;;;;;;;18.62;42.38;101330.56;2060566;28;19975;-61
2022/01/30 03:54:20;;;;;;;;;;;;;;;18.61;42.28;101323.31;2062255;28;19921;-61
2022/01/30 03:55:21;;;;;;;;;;;;;;;18.60;42.25;101321.59;2062934;28;19961;-61
2022/01/30 03:56:21;;;;;;;;;;;;;;;18.60;42.15;101313.41;2062685;28;19975;-61
2022/01/30 03:57:21;;;;;;;;;;;;;;;18.58;42.12;101313.50;2062139;28;19943;-62
2022/01/30 03:58:22;;;;;;;;;;;;;;;18.60;42.25;101313.41;2061764;28;19921;-61
2022/01/30 03:59:22;;;;;;;;;;;;;;;18.59;42.21;101322.56;2063056;28;20368;-62
2022/01/30 04:00:23;;;;;;;;;;;;;;;18.59;42.17;101322.56;2063030;28;20826;-61
2022/01/30 04:01:23;;;;;;;;;;;;;;;18.59;42.14;101317.09;2061691;28;19927;-61
2022/01/30 04:02:23;;;;;;;;;;;;;;;18.58;42.02;101321.69;2062851;28;19921;-62
2022/01/30 04:03:24;;;;;;;;;;;;;;;18.58;42.09;101320.84;2072885;28;19927;-62
2022/01/30 04:04:24;;;;;;;;;;;;;;;18.58;42.18;101326.28;2070128;28;20311;-62
2022/01/30 04:05:24;;;;;;;;;;;;;;;18.57;42.02;101319.97;2060878;28;20019;-61
2022/01/30 04:06:25;;;;;;;;;;;;;;;18.57;42.28;101324.53;2059567;28;20020;-61
2022/01/30 04:07:26;;;;;;;;;;;;;;;18.56;42.32;101323.66;2063339;28;19971;-61
2022/01/30 04:08:26;;;;;;;;;;;;;;;18.55;42.05;101315.63;2064129;28;19913;-61
2022/01/30 04:09:27;;;;;;;;;;;;;;;18.54;42.24;101319.31;2062531;28;19917;-62
2022/01/30 04:10:28;;;;;;;;;;;;;;;18.54;42.09;101327.50;2061701;28;19932;-61
2022/01/30 04:11:29;;;;;;;;;;;;;;;18.53;42.14;101317.59;2062327;28;20584;-61
2022/01/30 04:12:30;;;;;;;;;;;;;;;18.52;42.06;101321.28;2064125;28;19929;-61
2022/01/30 04:13:30;;;;;;;;;;;;;;;18.51;42.26;101319.56;2063436;28;19922;-62
2022/01/30 04:14:31;;;;;;;;;;;;;;;18.50;42.21;101315.97;2061253;28;20772;-61
2022/01/30 04:15:31;;;;;;;;;;;;;;;18.50;42.23;101315.09;2055212;28;19922;-61
2022/01/30 04:16:32;;;;;;;;;;;;;;;18.49;42.25;101316.06;2059283;28;20469;-62
2022/01/30 04:17:32;;;;;;;;;;;;;;;18.48;42.21;101312.47;2059136;28;20897;-61
2022/01/30 04:18:33;;;;;;;;;;;;;;;18.47;42.10;101313.47;2061966;28;19925;-61
2022/01/30 04:19:33;;;;;;;;;;;;;;;18.47;42.33;101313.47;2060871;28;19921;-62
2022/01/30 04:20:33;;;;;;;;;;;;;;;18.47;42.31;101309.84;2061100;28;19953;-61
2022/01/30 04:21:34;;;;;;;;;;;;;;;18.46;42.18;101305.38;2061877;28;19991;-61
2022/01/30 04:22:35;;;;;;;;;;;;;;;18.46;42.29;101302.66;2064080;28;19918;-62
2022/01/30 04:23:35;;;;;;;;;;;;;;;18.46;42.42;101302.66;2063167;28;20234;-62
2022/01/30 04:24:35;;;;;;;;;;;;;;;18.46;42.34;101299.94;2062728;28;20000;-62
2022/01/30 04:25:36;;;;;;;;;;;;;;;18.45;42.43;101303.63;2061692;28;19944;-61
2022/01/30 04:26:36;;;;;;;;;;;;;;;18.44;42.31;101302.75;2065225;28;20134;-62
2022/01/30 04:27:37;;;;;;;;;;;;;;;18.45;42.29;101292.72;2063531;28;19999;-61
2022/01/30 04:28:37;;;;;;;;;;;;;;;18.43;42.45;101301.91;2067260;28;19920;-62
2022/01/30 04:29:37;;;;;;;;;;;;;;;18.43;42.29;101296.44;2062911;28;19964;-62
2022/01/30 04:30:38;;;;;;;;;;;;;;;18.43;42.43;101296.44;2063051;28;20866;-61
2022/01/30 04:31:38;;;;;;;;;;;;;;;18.43;42.30;101296.44;2066556;28;19928;-62
2022/01/30 04:32:42;;;;;;;;;;;;;;;18.41;42.16;101292.94;2064700;28;19921;-62
2022/01/30 04:33:43;;;;;;;;;;;;;;;18.42;42.31;101283.78;2062508;28;19922;-62
2022/01/30 04:34:50;;;;;;;;;;;;;;;18.41;42.37;101276.56;2063866;28;19978;-62
2022/01/30 04:35:53;;;;;;;;;;;;;;;18.39;42.32;101286.72;2061651;28;20447;-61
2022/01/30 04:37:49;;;;;;;;;;;;;;;18.39;42.30;101281.28;2062800;28;19967;-61
2022/01/30 04:38:25;;;;;;;;;;;;;;;18.38;42.38;101282.28;2060339;28;19921;-62
2022/01/30 04:39:42;;;;;;;;;;;;;;;18.37;42.35;101286.00;2063342;28;19975;-62
2022/01/30 04:42:02;;;;;;;;;;;;;;;18.36;42.36;101278.78;2060831;28;23171;-61
2022/01/30 05:03:56;;;;;;;;;;;;;;;18.33;42.02;101279.03;2065011;28;20242;-62
2022/01/30 05:05:24;;;;;;;;;;;;;;;18.33;41.95;101270.84;2062410;28;19917;-61
2022/01/30 05:06:51;;;;;;;;;;;;;;;18.34;42.11;101275.28;2062737;28;19936;-62
2022/01/30 05:07:51;;;;;;;;;;;;;;;18.33;41.95;101267.25;2063296;28;19960;-62
2022/01/30 05:08:51;;;;;;;;;;;;;;;18.33;42.14;101268.09;2061433;28;19917;-61
2022/01/30 05:09:52;;;;;;;;;;;;;;;18.32;42.04;101265.47;2063019;28;19971;-61
2022/01/30 05:10:55;;;;;;;;;;;;;;;18.30;42.27;101273.81;2063212;28;19950;-62
2022/01/30 05:11:55;;;;;;;;;;;;;;;18.31;42.07;101267.34;2064335;28;20788;-61
2022/01/30 05:12:58;;;;;;;;;;;;;;;18.30;42.16;101257.44;2063204;28;20300;-62
2022/01/30 05:13:58;;;;;;;;;;;;;;;18.29;42.10;101263.84;2060732;28;19909;-62
2022/01/30 05:14:59;;;;;;;;;;;;;;;18.28;42.15;101256.66;2064574;28;19927;-61
2022/01/30 05:15:59;;;;;;;;;;;;;;;18.28;42.18;101256.66;2061965;28;19921;-61
2022/01/30 05:17:00;;;;;;;;;;;;;;;18.27;42.35;101252.16;2064006;28;19925;-61
2022/01/30 05:18:00;;;;;;;;;;;;;;;18.26;42.24;101247.72;2061556;28;20662;-62
2022/01/30 05:19:00;;;;;;;;;;;;;;;18.26;42.21;101249.59;2060879;28;20048;-62
2022/01/30 05:20:02;;;;;;;;;;;;;;;18.26;42.28;101244.13;2063863;28;19931;-62
2022/01/30 05:21:02;;;;;;;;;;;;;;;18.23;42.32;101256.16;2062448;28;19917;-61
2022/01/30 05:22:03;;;;;;;;;;;;;;;18.23;42.37;101250.69;2063331;28;19925;-62
2022/01/30 05:23:04;;;;;;;;;;;;;;;18.23;42.36;101256.16;2061780;28;19913;-62
2022/01/30 05:24:04;;;;;;;;;;;;;;;18.21;42.29;101250.78;2059601;28;19952;-61
2022/01/30 05:25:05;;;;;;;;;;;;;;;18.20;42.44;101251.78;2059076;28;19910;-62
2022/01/30 05:26:06;;;;;;;;;;;;;;;18.21;42.50;101255.38;2064522;28;19917;-61
2022/01/30 05:27:07;;;;;;;;;;;;;;;18.21;42.50;101258.97;2065288;28;19917;-62
2022/01/30 05:28:08;;;;;;;;;;;;;;;18.21;42.55;101252.66;2063281;28;19921;-61
2022/01/30 05:29:09;;;;;;;;;;;;;;;18.19;42.43;101250.03;2064940;28;19921;-62
2022/01/30 05:30:09;;;;;;;;;;;;;;;18.19;42.38;101252.75;2062051;28;19914;-61
2022/01/30 05:31:10;;;;;;;;;;;;;;;18.19;42.38;101249.16;2062234;28;19910;-61
2022/01/30 05:32:10;;;;;;;;;;;;;;;18.19;42.29;101255.50;2060967;28;19921;-62
2022/01/30 05:33:11;;;;;;;;;;;;;;;18.19;42.49;101249.16;2061720;28;19918;-62
2022/01/30 05:34:12;;;;;;;;;;;;;;;18.19;42.30;101251.91;2069968;28;19960;-62
2022/01/30 05:35:12;;;;;;;;;;;;;;;18.18;42.39;101253.75;2070756;28;20260;-62
2022/01/30 05:36:13;;;;;;;;;;;;;;;18.17;42.33;101248.41;2063167;28;19926;-62
2022/01/30 05:37:16;;;;;;;;;;;;;;;18.17;42.49;101251.13;2063920;28;20210;-64
2022/01/30 05:38:17;;;;;;;;;;;;;;;18.16;42.25;101243.94;2065276;28;20016;-63
2022/01/30 05:39:17;;;;;;;;;;;;;;;18.16;42.55;101243.94;2066590;28;19924;-63
2022/01/30 05:40:18;;;;;;;;;;;;;;;18.16;42.31;101249.41;2062347;28;20471;-64
2022/01/30 05:41:18;;;;;;;;;;;;;;;18.15;42.41;101244.91;2062425;28;20418;-64
2022/01/30 05:42:19;;;;;;;;;;;;;;;18.15;42.37;101247.66;2060863;28;19913;-63
2022/01/30 05:43:21;;;;;;;;;;;;;;;18.14;42.47;101245.91;2060970;28;20468;-63
2022/01/30 05:44:31;;;;;;;;;;;;;;;18.13;42.31;101247.78;2059647;28;19929;-63
2022/01/30 05:45:39;;;;;;;;;;;;;;;18.12;42.55;101236.97;2062550;28;20059;-63
2022/01/30 05:46:48;;;;;;;;;;;;;;;18.11;42.52;101240.69;2063966;28;20724;-63
2022/01/30 05:47:55;;;;;;;;;;;;;;;18.10;42.63;101242.53;2064341;28;19925;-63
2022/01/30 05:48:56;;;;;;;;;;;;;;;18.10;42.59;101255.31;2062735;28;20032;-64
2022/01/30 05:49:56;;;;;;;;;;;;;;;18.09;42.48;101253.59;2064367;28;20431;-64
2022/01/30 05:50:57;;;;;;;;;;;;;;;18.09;42.70;101253.59;2060987;28;19975;-63
2022/01/30 05:51:57;;;;;;;;;;;;;;;18.08;42.63;101255.44;2064555;28;19928;-63
2022/01/30 05:52:57;;;;;;;;;;;;;;;18.07;42.39;101248.22;2063384;28;20569;-63
2022/01/30 05:53:57;;;;;;;;;;;;;;;18.07;42.60;101248.22;2063251;28;19925;-63
2022/01/30 05:54:58;;;;;;;;;;;;;;;18.06;42.45;101245.63;2062476;28;19921;-64
2022/01/30 05:55:58;;;;;;;;;;;;;;;18.06;42.73;101243.78;2061649;28;19952;-64
2022/01/30 05:56:58;;;;;;;;;;;;;;;18.07;42.52;101244.63;2061145;28;20352;-63
2022/01/30 05:57:59;;;;;;;;;;;;;;;18.06;42.45;101248.38;2062592;28;19913;-64
2022/01/30 05:58:59;;;;;;;;;;;;;;;18.06;42.46;101248.38;2063084;28;19917;-64
2022/01/30 06:00:00;;;;;;;;;;;;;;;18.06;42.53;101249.22;2063820;28;19913;-63
2022/01/30 06:01:00;;;;;;;;;;;;;;;18.05;42.49;101252.06;2059516;28;19918;-63
2022/01/30 06:02:00;;;;;;;;;;;;;;;18.05;42.46;101254.78;2064282;28;19916;-63
2022/01/30 06:03:01;;;;;;;;;;;;;;;18.05;42.41;101252.06;2058490;28;19999;-63
2022/01/30 06:04:01;;;;;;;;;;;;;;;18.05;42.66;101254.78;2060513;28;19921;-64
2022/01/30 06:05:01;;;;;;;;;;;;;;;18.04;42.55;101263.97;2063579;28;19917;-64
2022/01/30 06:06:02;;;;;;;;;;;;;;;18.04;42.54;101250.34;2061278;28;19952;-64
2022/01/30 06:07:03;;;;;;;;;;;;;;;18.03;42.34;101256.75;2060465;28;21472;-63
2022/01/30 06:08:16;;;;;;;;;;;;;;;18.04;42.41;101266.69;2059099;28;19931;-63
2022/01/30 06:10:16;;;;;;;;;;;;;;;18.00;42.35;101256.00;2065014;28;19921;-63
2022/01/30 06:11:17;;;;;;;;;;;;;;;18.00;42.77;101261.44;2060726;28;20302;-63